Time;durP1;ratioP1;P1;durP2;ratioP2;P2;SDS_P1;SDS_P2;PMS_P1;PMS_P2;Temp;Humidity;BMP_temperature;BMP_pressure;BME280_temperature;BME280_humidity;BME280_pressure;Samples;Min_cycle;Max_cycle;Signal;HPM_P1;HPM_P2
2023/08/17 00:01:49;;;;;;;6.10;2.50;;;;;;;15.54;100.00;102250.34;5094565;28;20049;-79
2023/08/17 00:04:15;;;;;;;5.28;2.05;;;;;;;15.52;100.00;102247.81;5076106;28;20063;-79
2023/08/17 00:06:40;;;;;;;4.05;2.08;;;;;;;15.50;100.00;102250.63;5093990;28;20036;-79
2023/08/17 00:09:06;;;;;;;8.48;2.90;;;;;;;15.45;100.00;102250.22;5094236;28;20062;-79
2023/08/17 00:11:32;;;;;;;3.80;2.22;;;;;;;15.44;100.00;102253.88;5094545;28;20035;-80
2023/08/17 00:13:58;;;;;;;5.10;2.30;;;;;;;15.42;100.00;102246.94;5093697;28;20476;-80
2023/08/17 00:16:23;;;;;;;8.73;2.20;;;;;;;15.39;100.00;102250.75;5094024;28;20066;-79
2023/08/17 00:18:49;;;;;;;4.50;2.20;;;;;;;15.36;100.00;102253.72;5094247;28;20081;-78
2023/08/17 00:21:14;;;;;;;4.30;2.38;;;;;;;15.36;100.00;102252.84;5093703;28;20028;-78
2023/08/17 00:23:40;;;;;;;4.10;2.17;;;;;;;15.35;100.00;102257.38;5093885;28;20039;-81
2023/08/17 00:26:06;;;;;;;5.32;2.40;;;;;;;15.35;100.00;102257.38;5094176;28;20043;-78
2023/08/17 00:28:31;;;;;;;6.85;2.75;;;;;;;15.36;100.00;102255.53;5093903;28;20042;-78
2023/08/17 00:30:57;;;;;;;7.60;2.38;;;;;;;15.34;100.00;102253.81;5093701;28;20028;-79
2023/08/17 00:33:22;;;;;;;6.30;2.28;;;;;;;15.34;100.00;102248.47;5093178;28;20384;-79
2023/08/17 00:35:47;;;;;;;7.07;2.28;;;;;;;15.31;100.00;102247.91;5093924;28;20028;-79
2023/08/17 00:38:13;;;;;;;5.93;2.47;;;;;;;15.29;100.00;102244.53;5093716;28;20478;-79
2023/08/17 00:40:38;;;;;;;5.85;2.50;;;;;;;15.26;100.00;102245.63;5075911;28;20070;-79
2023/08/17 00:43:04;;;;;;;4.22;2.40;;;;;;;15.25;100.00;102243.09;5075625;28;20085;-79
2023/08/17 00:45:30;;;;;;;6.75;2.60;;;;;;;15.23;100.00;102240.53;5093508;28;20028;-79
2023/08/17 00:47:58;;;;;;;5.05;2.47;;;;;;;15.20;100.00;102235.44;5093531;28;20036;-79
2023/08/17 00:50:24;;;;;;;4.72;2.40;;;;;;;15.16;100.00;102234.84;5093797;28;20028;-79
2023/08/17 00:52:52;;;;;;;9.98;2.80;;;;;;;15.15;100.00;102237.66;5093712;28;20110;-79
2023/08/17 00:55:18;;;;;;;5.70;2.28;;;;;;;15.10;100.00;102235.41;5093365;28;20032;-79
2023/08/17 00:57:43;;;;;;;6.28;2.13;;;;;;;15.07;100.00;102245.56;5093600;28;20175;-79
2023/08/17 01:00:13;;;;;;;4.40;2.10;;;;;;;15.02;100.00;102240.59;5093777;28;20124;-79
2023/08/17 01:02:39;;;;;;;3.80;2.10;;;;;;;14.96;100.00;102250.03;5093073;28;20024;-79
2023/08/17 01:05:06;;;;;;;6.43;2.00;;;;;;;14.94;100.00;102245.78;5093364;28;20032;-79
2023/08/17 01:07:31;;;;;;;3.97;2.00;;;;;;;14.92;100.00;102258.47;5092944;28;20476;-78
2023/08/17 01:09:57;;;;;;;3.10;2.05;;;;;;;14.94;100.00;102249.31;5093936;28;20039;-80
2023/08/17 01:12:30;;;;;;;7.80;1.92;;;;;;;14.95;100.00;102258.19;5092959;28;20035;-79
2023/08/17 01:14:58;;;;;;;5.85;2.00;;;;;;;14.94;100.00;102248.44;5093838;28;20059;-79
2023/08/17 01:17:29;;;;;;;6.60;2.15;;;;;;;14.92;100.00;102251.25;5093203;28;20495;-79
2023/08/17 01:19:57;;;;;;;6.75;2.22;;;;;;;14.89;100.00;102243.50;5093769;28;20035;-80
2023/08/17 01:22:24;;;;;;;4.70;2.00;;;;;;;14.85;100.00;102235.84;5074837;28;20044;-79
2023/08/17 01:24:50;;;;;;;4.90;2.20;;;;;;;14.80;100.00;102242.44;5092929;28;20036;-80
2023/08/17 01:27:15;;;;;;;4.40;1.80;;;;;;;14.77;100.00;102239.19;5093120;28;20032;-79
2023/08/17 01:29:41;;;;;;;7.75;2.17;;;;;;;14.73;100.00;102237.75;5075281;28;20225;-80
2023/08/17 01:32:12;;;;;;;3.42;2.33;;;;;;;14.69;100.00;102233.63;5092751;28;20024;-79
2023/08/17 01:34:46;;;;;;;;;;;;;;;14.68;100.00;102240.84;5093537;28;20039;-79
2023/08/17 01:37:18;;;;;;;4.25;2.28;;;;;;;14.68;100.00;102242.69;5093593;28;19919;-79
2023/08/17 01:39:48;;;;;;;3.38;2.10;;;;;;;14.66;100.00;102244.63;5093499;28;20024;-79
2023/08/17 01:42:14;;;;;;;4.22;2.08;;;;;;;14.62;100.00;102238.69;5093229;28;20058;-81
2023/08/17 01:44:39;;;;;;;9.40;2.40;;;;;;;14.59;100.00;102237.09;5094189;28;20437;-79
2023/08/17 01:47:05;;;;;;;7.80;2.13;;;;;;;14.56;100.00;102233.84;5096575;28;20036;-79
2023/08/17 01:49:30;;;;;;;7.40;2.25;;;;;;;14.53;100.00;102234.94;5078616;28;20032;-79
2023/08/17 01:51:56;;;;;;;5.82;2.50;;;;;;;14.50;100.00;102231.69;5096687;28;20491;-80
2023/08/17 01:54:21;;;;;;;5.93;2.30;;;;;;;14.47;100.00;102232.78;5078645;28;20500;-79
2023/08/17 01:56:47;;;;;;;4.75;2.38;;;;;;;14.45;100.00;102216.84;5096625;28;20032;-79
2023/08/17 01:59:13;;;;;;;7.00;2.60;;;;;;;14.41;100.00;102219.94;5096182;28;20069;-78
2023/08/17 02:01:38;;;;;;;6.25;2.72;;;;;;;14.37;100.00;102223.84;5096094;28;20028;-82
2023/08/17 02:04:03;;;;;;;6.63;2.83;;;;;;;14.35;100.00;102226.66;5097063;28;20109;-79
2023/08/17 02:06:29;;;;;;;5.95;2.53;;;;;;;14.34;100.00;102224.94;5078352;28;20028;-81
2023/08/17 02:08:54;;;;;;;7.57;2.72;;;;;;;14.34;100.00;102218.75;5096863;28;20236;-80
2023/08/17 02:11:20;;;;;;;7.65;2.65;;;;;;;14.38;100.00;102226.38;5078176;28;20456;-81
2023/08/17 02:13:45;;;;;;;7.05;2.42;;;;;;;14.41;100.00;102220.75;5096480;28;20028;-80
2023/08/17 02:16:11;;;;;;;8.10;2.67;;;;;;;14.42;100.00;102224.28;5096802;28;20053;-80
2023/08/17 02:18:36;;;;;;;7.35;2.38;;;;;;;14.43;100.00;102212.59;5096762;28;20461;-81
2023/08/17 02:21:02;;;;;;;7.70;2.55;;;;;;;14.42;100.00;102219.78;5095862;28;20046;-81
2023/08/17 02:23:27;;;;;;;4.85;2.33;;;;;;;14.40;100.00;102224.41;5096225;28;20055;-80
2023/08/17 02:25:52;;;;;;;5.38;2.80;;;;;;;14.40;100.00;102226.25;5096537;28;20036;-80
2023/08/17 02:28:18;;;;;;;5.22;2.70;;;;;;;14.33;100.00;102223.25;5096071;28;20529;-81
2023/08/17 02:30:43;;;;;;;6.13;2.13;;;;;;;14.34;100.00;102229.44;5096063;28;20029;-81
2023/08/17 02:33:09;;;;;;;6.68;2.45;;;;;;;14.32;100.00;102229.59;5095606;28;20028;-81
2023/08/17 02:35:34;;;;;;;6.38;2.50;;;;;;;14.31;100.00;102227.03;5095998;28;20024;-81
2023/08/17 02:37:59;;;;;;;5.03;2.45;;;;;;;14.29;100.00;102229.84;5095871;28;20035;-80
2023/08/17 02:40:25;;;;;;;4.78;2.25;;;;;;;14.29;100.00;102225.31;5095889;28;20028;-81
2023/08/17 02:42:50;;;;;;;11.82;2.22;;;;;;;14.28;100.00;102231.66;5096433;28;20350;-80
2023/08/17 02:45:15;;;;;;;8.95;2.63;;;;;;;14.28;100.00;102225.47;5095959;28;20020;-81
2023/08/17 02:47:41;;;;;;;5.32;2.33;;;;;;;14.25;100.00;102223.03;5096188;28;20040;-80
2023/08/17 02:50:07;;;;;;;7.93;2.38;;;;;;;14.24;100.00;102229.38;5095429;28;20024;-80
2023/08/17 02:52:32;;;;;;;5.88;2.10;;;;;;;14.21;100.00;102226.94;5077567;28;20472;-81
2023/08/17 02:54:57;;;;;;;7.07;2.50;;;;;;;14.17;100.00;102221.03;5077354;28;20035;-80
2023/08/17 02:57:23;;;;;;;6.53;2.50;;;;;;;14.13;100.00;102216.06;5093939;28;20036;-80
2023/08/17 02:59:48;;;;;;;7.32;2.50;;;;;;;14.06;100.00;102208.53;5060525;28;20036;-81
2023/08/17 03:02:13;;;;;;;5.10;2.50;;;;;;;14.04;100.00;102220.34;5095416;28;20029;-80
2023/08/17 03:04:39;;;;;;;6.50;2.60;;;;;;;13.98;100.00;102226.22;5095688;28;20028;-80
2023/08/17 03:07:04;;;;;;;9.18;2.67;;;;;;;13.97;100.00;102222.66;5077204;28;20036;-81
2023/08/17 03:09:30;;;;;;;5.13;2.53;;;;;;;13.97;100.00;102211.13;5095302;28;20214;-80
2023/08/17 03:11:55;;;;;;;9.32;2.80;;;;;;;13.99;100.00;102214.50;5076902;28;20368;-82
2023/08/17 03:14:20;;;;;;;4.78;2.33;;;;;;;13.98;100.00;102212.84;5095219;28;20024;-81
2023/08/17 03:16:46;;;;;;;7.70;2.22;;;;;;;13.99;100.00;102215.38;5095347;28;20032;-81
2023/08/17 03:19:12;;;;;;;6.60;2.60;;;;;;;13.99;100.00;102214.50;5095013;28;20391;-80
2023/08/17 03:21:38;;;;;;;3.83;2.10;;;;;;;13.99;100.00;102215.38;5095305;28;20066;-80
2023/08/17 03:24:04;;;;;;;4.85;2.20;;;;;;;13.99;100.00;102214.50;5095164;28;20408;-80
2023/08/17 03:26:29;;;;;;;6.30;2.42;;;;;;;13.99;100.00;102219.88;5094883;28;20381;-80
2023/08/17 03:28:54;;;;;;;7.93;2.63;;;;;;;14.00;100.00;102218.91;5094840;28;20059;-80
2023/08/17 03:31:21;;;;;;;4.45;2.55;;;;;;;14.03;100.00;102214.16;5094930;28;20093;-80
2023/08/17 03:33:46;;;;;;;6.68;2.30;;;;;;;14.03;100.00;102208.81;5094696;28;20028;-80
2023/08/17 03:36:12;;;;;;;7.70;2.10;;;;;;;14.02;100.00;102208.94;5094774;28;20053;-80
2023/08/17 03:38:39;;;;;;;6.15;2.38;;;;;;;14.00;100.00;102214.41;5095255;28;20028;-81
2023/08/17 03:41:05;;;;;;;7.97;2.65;;;;;;;13.99;100.00;102207.34;5094521;28;20039;-81
2023/08/17 03:43:30;;;;;;;3.00;2.10;;;;;;;13.98;100.00;102202.97;5094369;28;20028;-80
2023/08/17 03:45:55;;;;;;;3.75;2.20;;;;;;;13.99;100.00;102215.38;5094205;28;20035;-80
2023/08/17 03:48:22;;;;;;;7.53;1.90;;;;;;;13.99;100.00;102207.34;5094815;28;20118;-80
2023/08/17 03:50:51;;;;;;;5.25;2.28;;;;;;;13.99;100.00;102209.16;5094487;28;20077;-80
2023/08/17 03:53:16;;;;;;;5.32;2.13;;;;;;;13.99;100.00;102201.13;5095061;28;20057;-80
2023/08/17 03:55:47;;;;;;;6.32;2.20;;;;;;;13.98;100.00;102202.97;5093082;28;20131;-80
2023/08/17 03:58:12;;;;;;;5.68;2.22;;;;;;;13.98;100.00;102208.31;5094727;28;20181;-81
2023/08/17 04:00:39;;;;;;;7.95;2.50;;;;;;;13.99;100.00;102203.81;5076295;28;20490;-80
2023/08/17 04:03:04;;;;;;;4.43;2.10;;;;;;;13.97;100.00;102198.59;5094395;28;20043;-81
2023/08/17 04:05:29;;;;;;;7.18;2.42;;;;;;;13.96;100.00;102199.59;5093976;28;20384;-80
2023/08/17 04:07:55;;;;;;;7.43;2.00;;;;;;;13.98;100.00;102207.47;5093616;28;20043;-81
2023/08/17 04:10:20;;;;;;;5.85;2.20;;;;;;;13.97;100.00;102201.25;5093845;28;20036;-81
2023/08/17 04:12:45;;;;;;;5.03;1.92;;;;;;;13.97;100.00;102205.78;5093993;28;20027;-81
2023/08/17 04:15:11;;;;;;;7.75;2.22;;;;;;;13.98;100.00;102204.81;5094048;28;20132;-80
2023/08/17 04:17:36;;;;;;;5.55;2.30;;;;;;;13.97;100.00;102211.13;5094110;28;20024;-80
2023/08/17 04:20:01;;;;;;;11.68;2.80;;;;;;;13.95;100.00;102218.44;5093960;28;20039;-80
2023/08/17 04:22:27;;;;;;;6.35;2.05;;;;;;;13.92;100.00;102214.19;5093754;28;20048;-80
2023/08/17 04:24:52;;;;;;;10.30;2.70;;;;;;;13.87;100.00;102216.41;5094546;28;20051;-81
2023/08/17 04:27:18;;;;;;;4.03;2.38;;;;;;;13.86;100.00;102217.38;5093774;28;20090;-80
2023/08/17 04:29:43;;;;;;;8.63;2.22;;;;;;;13.83;100.00;102221.16;5093695;28;20476;-81
2023/08/17 04:32:14;;;;;;;10.75;2.58;;;;;;;13.83;100.00;102215.78;5093613;28;20048;-80
2023/08/17 04:34:41;;;;;;;6.00;2.28;;;;;;;13.83;100.00;102220.31;5076516;28;20036;-80
2023/08/17 04:37:07;;;;;;;10.75;2.92;;;;;;;13.83;100.00;102217.63;5094077;28;20078;-80
2023/08/17 04:39:32;;;;;;;5.93;2.40;;;;;;;13.85;100.00;102216.53;5058945;28;20484;-80
2023/08/17 04:41:58;;;;;;;6.80;2.22;;;;;;;13.85;100.00;102213.88;5093632;28;20056;-81
2023/08/17 04:44:23;;;;;;;10.88;2.33;;;;;;;13.86;100.00;102212.03;5093741;28;20070;-80
2023/08/17 04:46:49;;;;;;;10.43;2.25;;;;;;;13.86;100.00;102204.84;5093675;28;20456;-80
2023/08/17 04:49:14;;;;;;;4.88;2.20;;;;;;;13.91;100.00;102204.44;5075591;28;20062;-80
2023/08/17 04:51:39;;;;;;;3.67;2.13;;;;;;;13.93;100.00;102206.03;5093589;28;20063;-80
2023/08/17 04:54:04;;;;;;;4.32;2.10;;;;;;;13.98;100.00;102200.28;5093227;28;20032;-82
2023/08/17 04:56:30;;;;;;;5.82;2.20;;;;;;;14.00;100.00;102208.19;5075317;28;20028;-81
2023/08/17 04:58:55;;;;;;;9.13;2.30;;;;;;;14.06;100.00;102211.22;5075492;28;20036;-80
2023/08/17 05:01:21;;;;;;;7.72;2.28;;;;;;;14.13;100.00;102208.88;5075066;28;20124;-81
2023/08/17 05:03:46;;;;;;;8.02;2.63;;;;;;;14.21;100.00;102206.41;5093753;28;20072;-81
2023/08/17 05:06:12;;;;;;;5.43;1.90;;;;;;;14.33;100.00;102209.00;5093117;28;20407;-81
2023/08/17 05:08:37;;;;;;;5.72;1.92;;;;;;;14.43;100.00;102201.88;5093330;28;20085;-81
2023/08/17 05:11:02;;;;;;;10.38;2.45;;;;;;;14.54;100.00;102206.31;5093000;28;20039;-80
2023/08/17 05:13:28;;;;;;;6.13;1.70;;;;;;;14.62;100.00;102198.50;5058310;28;20372;-80
2023/08/17 05:15:53;;;;;;;4.65;2.25;;;;;;;14.69;100.00;102193.47;5093325;28;20078;-81
2023/08/17 05:18:18;;;;;;;6.88;2.15;;;;;;;14.75;100.00;102182.22;5093641;28;20461;-81
2023/08/17 05:20:44;;;;;;;6.85;2.10;;;;;;;14.82;100.00;102191.41;5095831;28;20097;-81
2023/08/17 05:23:09;;;;;;;2.55;1.90;;;;;;;14.86;100.00;102186.66;5097615;28;20460;-80
2023/08/17 05:25:35;;;;;;;6.13;1.85;;;;;;;14.90;100.00;102196.97;5098060;28;20044;-80
2023/08/17 05:28:00;;;;;;;7.75;2.53;;;;;;;14.93;100.00;102195.84;5097460;28;20384;-81
2023/08/17 05:30:26;;;;;;;5.65;1.92;;;;;;;14.95;100.00;102207.28;5097500;28;20464;-80
2023/08/17 05:32:51;;;;;;;7.07;2.20;;;;;;;14.97;100.00;102203.47;5097431;28;20060;-79
2023/08/17 05:35:17;;;;;;;5.00;2.10;;;;;;;15.03;100.00;102203.91;5097416;28;20036;-79
2023/08/17 05:37:42;;;;;;;8.82;1.75;;;;;;;15.05;100.00;102200.13;5097236;28;20039;-79
2023/08/17 05:40:08;;;;;;;5.97;2.15;;;;;;;15.07;100.00;102206.19;5061977;28;20563;-81
2023/08/17 05:42:34;;;;;;;7.03;1.92;;;;;;;15.15;100.00;102211.72;5097833;28;20043;-81
2023/08/17 05:45:00;;;;;;;10.18;2.17;;;;;;;15.21;100.00;102207.66;5096898;28;20024;-82
2023/08/17 05:47:25;;;;;;;8.27;1.85;;;;;;;15.28;100.00;102202.59;5077990;28;20460;-82
2023/08/17 05:49:51;;;;;;;6.72;2.25;;;;;;;15.35;100.00;102203.75;5096234;28;20024;-81
2023/08/17 05:52:16;;;;;;;9.07;2.45;;;;;;;15.41;100.00;102205.03;5096456;28;20482;-80
2023/08/17 05:54:42;;;;;;;8.32;2.17;;;;;;;15.45;100.00;102204.63;5096503;28;20368;-83
2023/08/17 05:57:08;;;;;;;6.95;2.40;;;;;;;15.50;100.00;102205.03;5078320;28;20054;-82
2023/08/17 05:59:33;;;;;;;3.97;1.83;;;;;;;15.56;100.00;102205.50;5096624;28;20032;-83
2023/08/17 06:01:59;;;;;;;12.23;2.20;;;;;;;15.62;100.00;102210.28;5096446;28;20035;-84
2023/08/17 06:04:24;;;;;;;5.53;2.15;;;;;;;15.67;100.00;102210.72;5078236;28;20043;-83
2023/08/17 06:06:49;;;;;;;9.50;1.92;;;;;;;15.71;100.00;102212.13;5096311;28;20036;-86
2023/08/17 06:09:15;;;;;;;5.60;2.10;;;;;;;15.78;100.00;102215.13;5077214;28;20488;-84
2023/08/17 06:11:40;;;;;;;10.65;2.00;;;;;;;15.82;100.00;102222.78;5095883;28;20115;-82
2023/08/17 06:14:06;;;;;;;11.70;2.17;;;;;;;15.87;100.00;102225.03;5096189;28;20522;-82
2023/08/17 06:16:32;;;;;;;7.20;2.20;;;;;;;15.94;100.00;102231.53;5077679;28;20085;-82
2023/08/17 06:18:57;;;;;;;7.25;1.77;;;;;;;16.00;100.00;102228.31;5095884;28;20444;-82
2023/08/17 06:21:22;;;;;;;8.02;2.22;;;;;;;16.04;100.00;102229.69;5096043;28;20463;-82
2023/08/17 06:23:48;;;;;;;7.30;2.03;;;;;;;16.04;100.00;102226.16;5078085;28;20055;-82
2023/08/17 06:26:13;;;;;;;4.55;2.25;;;;;;;16.03;100.00;102227.16;5095631;28;20064;-82
2023/08/17 06:28:39;;;;;;;7.03;2.00;;;;;;;16.00;100.00;102225.63;5095944;28;20518;-82
2023/08/17 06:31:04;;;;;;;5.68;2.05;;;;;;;15.99;100.00;102234.66;5095264;28;20031;-82
2023/08/17 06:33:30;;;;;;;5.97;2.75;;;;;;;16.01;100.00;102231.81;5077687;28;20395;-82
2023/08/17 06:35:55;;;;;;;4.47;2.22;;;;;;;16.01;100.00;102238.03;5095789;28;20524;-83
2023/08/17 06:38:20;;;;;;;6.25;2.53;;;;;;;16.06;100.00;102231.41;5095970;28;20035;-82
2023/08/17 06:40:46;;;;;;;7.72;2.45;;;;;;;16.12;100.00;102234.38;5095662;28;20125;-82
2023/08/17 06:43:11;;;;;;;6.90;2.50;;;;;;;16.22;100.00;102229.00;5095634;28;20036;-82
2023/08/17 06:45:37;;;;;;;5.55;2.25;;;;;;;16.29;100.00;102231.97;5096046;28;20034;-82
2023/08/17 06:48:03;;;;;;;5.13;2.03;;;;;;;16.38;100.00;102237.31;5095638;28;20044;-82
2023/08/17 06:50:28;;;;;;;8.02;2.45;;;;;;;16.46;100.00;102244.66;5077159;28;20028;-82
2023/08/17 06:52:54;;;;;;;8.48;2.85;;;;;;;16.49;100.00;102225.56;5095470;28;20428;-82
2023/08/17 06:55:20;;;;;;;7.70;2.55;;;;;;;16.53;100.00;102239.56;5095578;28;20044;-80
2023/08/17 06:57:45;;;;;;;8.02;3.25;;;;;;;16.57;100.00;102235.59;5077594;28;20368;-80
2023/08/17 07:00:11;;;;;;;6.93;2.10;;;;;;;16.62;100.00;102230.63;5095927;28;20058;-79
2023/08/17 07:02:37;;;;;;;3.53;2.28;;;;;;;16.70;100.00;102233.41;5096270;28;20040;-80
2023/08/17 07:05:03;;;;;;;5.95;2.00;;;;;;;16.85;100.00;102233.78;5096166;28;20100;-81
2023/08/17 07:07:30;;;;;;;3.67;2.00;;;;;;;17.04;100.00;102232.09;5076919;28;20119;-81
2023/08/17 07:09:55;;;;;;;4.53;1.95;;;;;;;17.22;100.00;102227.59;5095374;28;20054;-83
2023/08/17 07:12:20;;;;;;;9.48;2.28;;;;;;;17.45;100.00;102232.56;5095065;28;20472;-82
2023/08/17 07:14:45;;;;;;;9.20;2.55;;;;;;;17.58;100.00;102229.53;5095524;28;20421;-81
2023/08/17 07:17:11;;;;;;;6.05;2.35;;;;;;;17.56;100.00;102221.59;5095828;28;20488;-81
2023/08/17 07:19:36;;;;;;;12.27;3.05;;;;;;;17.63;100.00;102220.00;5095798;28;20027;-83
2023/08/17 07:22:01;;;;;;;5.78;2.35;;;;;;;17.76;100.00;102224.16;5095641;28;20081;-82
2023/08/17 07:24:27;;;;;;;8.90;2.85;;;;;;;17.85;100.00;102219.72;5096327;28;20052;-82
2023/08/17 07:26:52;;;;;;;6.80;2.17;;;;;;;17.94;100.00;102226.88;5095528;28;20036;-84
2023/08/17 07:29:18;;;;;;;6.25;2.20;;;;;;;18.06;100.00;102225.66;5077085;28;20589;-79
2023/08/17 07:31:43;;;;;;;4.95;2.30;;;;;;;18.21;100.00;102219.72;5094666;28;20032;-78
2023/08/17 07:34:09;;;;;;;7.22;2.25;;;;;;;18.28;100.00;102227.00;5095070;28;20520;-77
2023/08/17 07:36:34;;;;;;;4.97;2.10;;;;;;;18.23;100.00;102225.81;5094168;28;20038;-80
2023/08/17 07:38:59;;;;;;;7.15;2.03;;;;;;;18.19;100.00;102233.34;5094616;28;20056;-80
2023/08/17 07:41:25;;;;;;;6.75;2.85;;;;;;;18.25;100.00;102231.88;5095098;28;20372;-79
2023/08/17 07:43:51;;;;;;;7.78;2.10;;;;;;;18.23;100.00;102223.94;5093612;28;20059;-82
2023/08/17 07:46:17;;;;;;;10.50;2.30;;;;;;;18.35;100.00;102224.56;5094590;28;20433;-81
2023/08/17 07:48:42;;;;;;;7.32;1.80;;;;;;;18.43;100.00;102229.97;5094460;28;20028;-82
2023/08/17 07:51:07;;;;;;;5.70;1.73;;;;;;;18.54;100.00;102222.66;5094135;28;20544;-81
2023/08/17 07:53:33;;;;;;;5.10;2.10;;;;;;;18.63;100.00;102225.25;5094751;28;20400;-81
2023/08/17 07:55:58;;;;;;;8.90;1.90;;;;;;;18.93;100.00;102223.09;5095289;28;20111;-81
2023/08/17 07:58:24;;;;;;;6.93;1.70;;;;;;;19.23;100.00;102225.41;5095062;28;20119;-81
2023/08/17 08:00:49;;;;;;;10.93;2.15;;;;;;;19.31;100.00;102225.44;5094104;28;20059;-83
2023/08/17 08:03:15;;;;;;;4.57;1.67;;;;;;;19.42;100.00;102227.81;5094840;28;20056;-82
2023/08/17 08:05:40;;;;;;;3.65;1.45;;;;;;;19.53;100.00;102221.31;5095545;28;20135;-81
2023/08/17 08:08:05;;;;;;;3.28;1.60;;;;;;;19.54;100.00;102228.38;5076450;28;20035;-81
2023/08/17 08:10:31;;;;;;;2.55;1.38;;;;;;;19.57;100.00;102222.63;5094831;28;20024;-81
2023/08/17 08:12:56;;;;;;;6.28;1.83;;;;;;;19.52;100.00;102216.91;5095631;28;20096;-80
2023/08/17 08:15:22;;;;;;;4.22;1.80;;;;;;;19.70;100.00;102214.91;5095068;28;20028;-81
2023/08/17 08:17:47;;;;;;;9.35;1.90;;;;;;;19.85;100.00;102206.19;5094035;28;20043;-78
2023/08/17 08:20:13;;;;;;;6.93;1.65;;;;;;;20.00;100.00;102204.50;5094429;28;20108;-78
2023/08/17 08:22:38;;;;;;;4.63;1.70;;;;;;;20.33;100.00;102198.25;5094035;28;20119;-78
2023/08/17 08:25:04;;;;;;;6.57;1.70;;;;;;;20.73;100.00;102208.16;5094522;28;20044;-79
2023/08/17 08:27:29;;;;;;;4.15;1.58;;;;;;;21.06;100.00;102209.91;5094006;28;20036;-78
2023/08/17 08:29:54;;;;;;;6.80;1.52;;;;;;;21.00;100.00;102207.91;5093766;28;20028;-77
2023/08/17 08:32:20;;;;;;;7.13;1.80;;;;;;;21.15;100.00;102203.44;5094338;28;20034;-76
2023/08/17 08:34:45;;;;;;;5.00;1.75;;;;;;;21.30;100.00;102206.25;5093742;28;20062;-76
2023/08/17 08:37:11;;;;;;;7.45;1.90;;;;;;;21.28;100.00;102203.72;5093687;28;20028;-77
2023/08/17 08:39:50;;;;;;;6.43;1.58;;;;;;;21.06;100.00;102199.09;5075906;28;20031;-77
2023/08/17 08:42:17;;;;;;;5.82;1.52;;;;;;;21.20;100.00;102194.78;5094078;28;20077;-77
2023/08/17 08:44:42;;;;;;;5.65;1.63;;;;;;;21.39;100.00;102196.22;5093535;28;20036;-76
2023/08/17 08:47:08;;;;;;;7.72;1.50;;;;;;;21.40;100.00;102195.22;5093271;28;20465;-77
2023/08/17 08:49:38;;;;;;;5.78;1.73;;;;;;;21.30;100.00;102190.00;5093809;28;20035;-75
2023/08/17 08:52:07;;;;;;;12.88;2.10;;;;;;;21.46;100.00;102184.50;5093524;28;20038;-76
2023/08/17 08:54:36;;;;;;;3.47;1.50;;;;;;;21.56;100.00;102192.44;5093350;28;20036;-76
2023/08/17 08:57:06;;;;;;;4.50;1.55;;;;;;;21.76;100.00;102187.38;5075806;28;20074;-76
2023/08/17 08:59:33;;;;;;;4.57;1.50;;;;;;;21.99;100.00;102181.13;5093693;28;20032;-77
2023/08/17 09:01:59;;;;;;;5.80;2.08;;;;;;;21.99;100.00;102194.66;5075956;28;20657;-75
2023/08/17 09:04:25;;;;;;;7.30;1.77;;;;;;;22.19;100.00;102193.09;5093717;28;20082;-76
2023/08/17 09:06:51;;;;;;;6.95;1.80;;;;;;;22.39;100.00;102189.06;5093942;28;20032;-76
2023/08/17 09:09:18;;;;;;;5.43;1.85;;;;;;;22.90;100.00;102186.47;5092933;28;20036;-76
2023/08/17 09:11:43;;;;;;;6.80;1.42;;;;;;;23.51;100.00;102188.91;5075099;28;20387;-77
2023/08/17 09:14:09;;;;;;;9.80;2.10;;;;;;;24.10;100.00;102184.25;5093531;28;20081;-76
2023/08/17 09:16:34;;;;;;;4.80;1.70;;;;;;;24.84;100.00;102171.13;5092826;28;20538;-76
2023/08/17 09:19:00;;;;;;;7.43;2.22;;;;;;;25.03;100.00;102178.53;5075296;28;20051;-77
2023/08/17 09:21:26;;;;;;;6.10;1.85;;;;;;;25.21;100.00;102177.16;5092957;28;20028;-77
2023/08/17 09:23:53;;;;;;;8.60;2.15;;;;;;;25.34;100.00;102177.22;5093658;28;20048;-76
2023/08/17 09:26:25;;;;;;;6.50;1.60;;;;;;;25.73;100.00;102181.06;5093030;28;20036;-75
2023/08/17 09:28:51;;;;;;;5.93;1.80;;;;;;;26.16;100.00;102171.66;5092688;28;20473;-75
2023/08/17 09:31:21;;;;;;;5.50;1.90;;;;;;;26.23;100.00;102172.50;5093530;28;20036;-75
2023/08/17 09:33:49;;;;;;;10.43;1.38;;;;;;;26.51;96.89;102164.06;5092742;28;20526;-75
2023/08/17 09:36:15;;;;;;;5.50;2.00;;;;;;;26.24;91.26;102157.78;5093228;28;20475;-76
2023/08/17 09:38:40;;;;;;;7.10;1.70;;;;;;;25.65;100.00;102160.31;5092737;28;20036;-75
2023/08/17 09:41:06;;;;;;;6.80;1.70;;;;;;;25.94;100.00;102158.22;5093703;28;20407;-75
2023/08/17 09:43:33;;;;;;;6.53;2.13;;;;;;;26.31;98.19;102155.06;5092991;28;20074;-75
2023/08/17 09:45:59;;;;;;;7.80;1.90;;;;;;;25.47;99.45;102147.28;5093018;28;20036;-78
2023/08/17 09:48:25;;;;;;;6.93;1.70;;;;;;;25.06;100.00;102147.34;5093054;28;20085;-75
2023/08/17 09:50:51;;;;;;;5.93;1.88;;;;;;;25.61;100.00;102147.31;5092834;28;20032;-75
2023/08/17 09:53:17;;;;;;;4.68;1.60;;;;;;;25.77;100.00;102148.78;5092775;28;20036;-76
2023/08/17 09:55:44;;;;;;;4.35;1.90;;;;;;;26.38;85.77;102143.09;5093484;28;20115;-76
2023/08/17 09:58:14;;;;;;;8.10;1.70;;;;;;;26.14;91.77;102146.47;5075300;28;20425;-75
2023/08/17 10:00:44;;;;;;;3.70;1.40;;;;;;;25.87;100.00;102149.19;5093222;28;20046;-76
2023/08/17 10:03:13;;;;;;;7.82;1.83;;;;;;;25.94;100.00;102158.22;5093898;28;20043;-75
2023/08/17 10:05:41;;;;;;;4.93;1.70;;;;;;;25.20;98.38;102153.66;5093972;28;20032;-76
2023/08/17 10:08:07;;;;;;;5.07;1.58;;;;;;;25.44;100.00;102152.28;5097211;28;20028;-77
2023/08/17 10:10:35;;;;;;;7.40;1.70;;;;;;;26.09;92.81;102146.28;5096743;28;20036;-78
2023/08/17 10:13:06;;;;;;;6.25;1.50;;;;;;;26.50;91.45;102135.09;5096816;28;20031;-78
2023/08/17 10:15:34;;;;;;;5.93;1.83;;;;;;;26.73;85.02;102134.59;5079381;28;20085;-78
2023/08/17 10:18:15;;;;;;;5.57;1.90;;;;;;;26.72;92.51;102138.41;5096501;28;20024;-77
2023/08/17 10:20:42;;;;;;;;;;;;;;;25.61;86.79;102133.69;5096676;28;20077;-78
2023/08/17 10:23:22;;;;;;;4.32;1.45;;;;;;;24.98;96.84;102141.03;5095895;28;19998;-77
2023/08/17 10:25:50;;;;;;;7.20;1.70;;;;;;;25.32;94.74;102139.28;5096870;28;20039;-75
2023/08/17 10:28:16;;;;;;;4.00;1.70;;;;;;;25.33;99.58;102143.72;5096101;28;20357;-76
2023/08/17 10:30:42;;;;;;;4.70;1.90;;;;;;;25.54;100.00;102132.84;5077849;28;20029;-75
2023/08/17 10:33:09;;;;;;;5.60;1.60;;;;;;;25.73;90.47;102136.63;5095963;28;20115;-75
2023/08/17 10:35:36;;;;;;;4.35;1.60;;;;;;;25.96;99.80;102134.31;5096075;28;20464;-77
2023/08/17 10:38:04;;;;;;;6.38;1.83;;;;;;;25.61;94.03;102133.69;5095972;28;20070;-75
2023/08/17 10:40:35;;;;;;;4.70;1.70;;;;;;;26.24;100.00;102135.16;5095552;28;20468;-75
2023/08/17 10:43:00;;;;;;;9.25;1.92;;;;;;;26.85;90.53;102142.97;5096513;28;20036;-74
2023/08/17 10:45:29;;;;;;;6.95;1.70;;;;;;;26.90;90.92;102129.50;5096134;28;20418;-75
2023/08/17 10:48:09;;;;;;;3.95;1.65;;;;;;;26.93;78.12;102136.41;5095708;28;20031;-75
2023/08/17 10:50:36;;;;;;;12.68;1.70;;;;;;;26.97;83.17;102140.38;5095867;28;20064;-75
2023/08/17 10:53:09;;;;;;;5.28;1.90;;;;;;;26.74;81.19;102146.38;5095642;28;20084;-76
2023/08/17 10:55:36;;;;;;;3.83;1.73;;;;;;;27.21;82.36;102137.94;5096241;28;20028;-75
2023/08/17 10:58:01;;;;;;;3.38;1.73;;;;;;;27.75;81.26;102130.25;5095844;28;20020;-75
2023/08/17 11:00:33;;;;;;;10.68;1.95;;;;;;;27.49;86.14;102143.06;5095847;28;20024;-75
2023/08/17 11:03:01;;;;;;;6.88;2.05;;;;;;;26.51;82.36;102139.50;5095698;28;20120;-78
2023/08/17 11:05:38;;;;;;;5.53;1.70;;;;;;;26.23;92.93;102128.88;5095437;28;20024;-75
2023/08/17 11:08:09;;;;;;;4.88;2.10;;;;;;;25.72;99.32;102132.22;5095520;28;20408;-75
2023/08/17 11:10:35;;;;;;;3.83;1.65;;;;;;;26.17;99.53;102121.50;5096038;28;20024;-78
2023/08/17 11:13:01;;;;;;;4.63;1.90;;;;;;;26.65;85.37;102126.63;5095320;28;20038;-75